createdAt,value
2018-05-10T00:00:34.962Z,19.94
2018-05-10T00:01:34.953Z,19.96
2018-05-10T00:02:34.939Z,19.96
2018-05-10T00:03:34.926Z,20.00
2018-05-10T00:04:34.914Z,19.87
2018-05-10T00:05:34.901Z,19.87
2018-05-10T00:06:34.889Z,19.75
2018-05-10T00:07:34.887Z,19.81
2018-05-10T00:08:34.869Z,19.82
2018-05-10T00:09:34.852Z,19.84
2018-05-10T00:10:34.839Z,19.87
2018-05-10T00:11:34.825Z,19.78
2018-05-10T00:12:34.813Z,19.85
2018-05-10T00:13:34.816Z,19.75
2018-05-10T00:14:34.789Z,19.71
2018-05-10T00:15:34.790Z,19.79
2018-05-10T00:16:34.764Z,19.82
2018-05-10T00:17:34.751Z,19.82
2018-05-10T00:18:34.743Z,19.74
2018-05-10T00:19:34.744Z,19.72
2018-05-10T00:20:34.715Z,19.67
2018-05-10T00:21:34.713Z,19.72
2018-05-10T00:22:34.689Z,19.62
2018-05-10T00:23:34.678Z,19.72
2018-05-10T00:24:34.665Z,19.72
2018-05-10T00:25:34.652Z,19.72
2018-05-10T00:26:34.653Z,19.75
2018-05-10T00:27:34.629Z,19.64
2018-05-10T00:28:34.615Z,19.59
2018-05-10T00:29:34.603Z,19.75
2018-05-10T00:30:34.600Z,19.72
2018-05-10T00:31:34.578Z,19.72
2018-05-10T00:32:34.564Z,19.70
2018-05-10T00:33:34.562Z,19.67
2018-05-10T00:34:34.693Z,19.77
2018-05-10T00:35:34.527Z,19.70
2018-05-10T00:36:34.516Z,19.72
2018-05-10T00:37:34.504Z,19.79
2018-05-10T00:38:34.493Z,19.77
2018-05-10T00:39:34.481Z,19.90
2018-05-10T00:40:34.469Z,19.79
2018-05-10T00:41:34.453Z,19.84
2018-05-10T00:42:34.449Z,19.82
2018-05-10T00:43:34.440Z,19.81
2018-05-10T00:44:34.425Z,19.81
2018-05-10T00:45:34.411Z,19.66
2018-05-10T00:46:34.392Z,19.66
2018-05-10T00:47:34.380Z,19.49
2018-05-10T00:48:34.370Z,19.53
2018-05-10T00:49:34.358Z,19.39
2018-05-10T00:50:34.342Z,19.52
2018-05-10T00:51:34.350Z,19.47
2018-05-10T00:52:34.320Z,19.42
2018-05-10T00:53:34.358Z,19.39
2018-05-10T00:54:34.298Z,19.29
2018-05-10T00:55:34.299Z,19.30
2018-05-10T00:56:34.272Z,19.29
2018-05-10T00:57:34.253Z,19.24
2018-05-10T00:58:34.248Z,19.27
2018-05-10T00:59:34.230Z,19.24
2018-05-10T01:00:34.225Z,19.17
2018-05-10T01:01:34.204Z,19.16
2018-05-10T01:02:34.194Z,19.09
2018-05-10T01:03:34.178Z,19.12
2018-05-10T01:04:34.174Z,19.15
2018-05-10T01:05:34.154Z,19.19
2018-05-10T01:06:34.148Z,19.19
2018-05-10T01:07:34.129Z,19.27
2018-05-10T01:08:34.117Z,19.30
2018-05-10T01:09:34.104Z,19.27
2018-05-10T01:10:34.090Z,19.29
2018-05-10T01:11:34.081Z,19.26
2018-05-10T01:12:34.074Z,19.24
2018-05-10T01:13:34.053Z,19.35
2018-05-10T01:14:34.040Z,19.29
2018-05-10T01:15:34.029Z,19.24
2018-05-10T01:16:34.024Z,19.35
2018-05-10T01:17:34.014Z,19.34
2018-05-10T01:18:33.990Z,19.37
2018-05-10T01:19:33.981Z,19.39
2018-05-10T01:20:33.965Z,19.26
2018-05-10T01:21:33.953Z,19.29
2018-05-10T01:22:33.941Z,19.32
2018-05-10T01:23:33.927Z,19.29
2018-05-10T01:24:33.924Z,19.29
2018-05-10T01:25:33.904Z,19.35
2018-05-10T01:26:33.891Z,19.23
2018-05-10T01:27:33.878Z,19.17
2018-05-10T01:28:33.870Z,19.15
2018-05-10T01:29:33.853Z,18.98
2018-05-10T01:30:33.845Z,18.86
2018-05-10T01:31:33.827Z,18.81
2018-05-10T01:32:33.819Z,18.79
2018-05-10T01:33:33.802Z,18.73
2018-05-10T01:34:33.789Z,18.71
2018-05-10T01:35:33.777Z,18.63
2018-05-10T01:36:33.765Z,18.67
2018-05-10T01:37:33.752Z,18.71
2018-05-10T01:38:33.739Z,18.74
2018-05-10T01:39:33.725Z,18.73
2018-05-10T01:40:33.711Z,18.83
2018-05-10T01:41:33.699Z,18.78
2018-05-10T01:42:33.688Z,18.88
2018-05-10T01:43:33.675Z,18.82
2018-05-10T01:44:33.662Z,18.82
2018-05-10T01:45:33.649Z,18.82
2018-05-10T01:46:33.637Z,18.89
2018-05-10T01:47:33.623Z,18.85
2018-05-10T01:48:33.619Z,18.89
2018-05-10T01:49:33.606Z,18.83
2018-05-10T01:50:33.584Z,18.76
2018-05-10T01:51:33.572Z,18.81
2018-05-10T01:52:33.561Z,18.78
2018-05-10T01:53:33.547Z,18.82
2018-05-10T01:54:33.538Z,18.79
2018-05-10T01:55:33.523Z,18.82
2018-05-10T01:56:33.519Z,18.88
2018-05-10T01:57:33.495Z,18.85
2018-05-10T01:58:33.484Z,18.83
2018-05-10T01:59:33.469Z,18.88
2018-05-10T02:00:33.458Z,18.86
2018-05-10T02:01:33.446Z,18.88
2018-05-10T02:02:33.433Z,18.86
2018-05-10T02:03:33.418Z,18.78
2018-05-10T02:04:33.408Z,18.82
2018-05-10T02:05:33.408Z,18.88
2018-05-10T02:06:33.390Z,18.76
2018-05-10T02:07:33.366Z,18.85
2018-05-10T02:08:33.405Z,18.88
2018-05-10T02:09:33.343Z,18.94
2018-05-10T02:10:33.331Z,18.89
2018-05-10T02:11:33.318Z,18.91
2018-05-10T02:12:33.307Z,18.82
2018-05-10T02:13:33.294Z,18.89
2018-05-10T02:14:33.281Z,18.83
2018-05-10T02:15:33.265Z,18.79
2018-05-10T02:16:33.260Z,18.82
2018-05-10T02:17:33.240Z,18.83
2018-05-10T02:18:33.228Z,18.78
2018-05-10T02:19:33.215Z,18.78
2018-05-10T02:20:33.203Z,18.73
2018-05-10T02:21:33.192Z,18.73
2018-05-10T02:22:33.177Z,18.70
2018-05-10T02:23:33.168Z,18.70
2018-05-10T02:24:33.151Z,18.70
2018-05-10T02:25:33.141Z,18.63
2018-05-10T02:26:33.134Z,18.58
2018-05-10T02:27:33.115Z,18.60
2018-05-10T02:28:33.100Z,18.46
2018-05-10T02:29:33.288Z,18.45
2018-05-10T02:30:33.076Z,18.46
2018-05-10T02:31:33.065Z,18.39
2018-05-10T02:32:33.049Z,18.36
2018-05-10T02:33:33.038Z,18.42
2018-05-10T02:34:33.032Z,18.39
2018-05-10T02:35:33.009Z,18.41
2018-05-10T02:36:32.997Z,18.41
2018-05-10T02:37:32.985Z,18.34
2018-05-10T02:38:32.983Z,18.43
2018-05-10T02:39:32.971Z,18.46
2018-05-10T02:40:32.946Z,18.31
2018-05-10T02:41:32.932Z,18.26
2018-05-10T02:42:32.920Z,18.28
2018-05-10T02:43:32.908Z,18.12
2018-05-10T02:44:32.893Z,18.12
2018-05-10T02:45:32.881Z,18.16
2018-05-10T02:46:32.875Z,18.09
2018-05-10T02:48:17.289Z,18.15
2018-05-10T02:50:36.403Z,18.09
2018-05-10T02:51:36.387Z,18.12
2018-05-10T02:52:36.374Z,18.09
2018-05-10T02:53:36.359Z,18.06
2018-05-10T02:54:36.347Z,17.98
2018-05-10T02:55:36.332Z,17.97
2018-05-10T02:56:36.324Z,17.97
2018-05-10T02:57:36.315Z,18.00
2018-05-10T02:58:36.303Z,17.98
2018-05-10T02:59:36.285Z,17.97
2018-05-10T03:00:36.270Z,17.88
2018-05-10T03:01:36.266Z,17.82
2018-05-10T03:02:36.245Z,17.86
2018-05-10T03:03:36.228Z,17.76
2018-05-10T03:04:36.216Z,17.73
2018-05-10T03:06:34.862Z,17.78
2018-05-10T03:07:34.852Z,17.76
2018-05-10T03:08:34.836Z,17.68
2018-05-10T03:09:34.813Z,17.60
2018-05-10T03:10:34.795Z,17.65
2018-05-10T03:11:34.787Z,17.59
2018-05-10T03:12:34.777Z,17.68
2018-05-10T03:13:37.379Z,17.66
2018-05-10T03:14:34.751Z,17.66
2018-05-10T03:15:34.730Z,17.66
2018-05-10T03:16:34.723Z,17.66
2018-05-10T03:17:34.705Z,17.66
2018-05-10T03:18:34.690Z,17.69
2018-05-10T03:19:34.675Z,17.57
2018-05-10T03:20:34.661Z,17.56
2018-05-10T03:21:34.646Z,17.69
2018-05-10T03:22:34.635Z,17.54
2018-05-10T03:23:34.620Z,17.66
2018-05-10T03:24:34.610Z,17.54
2018-05-10T03:25:34.594Z,17.52
2018-05-10T03:26:34.582Z,17.54
2018-05-10T03:27:34.566Z,17.50
2018-05-10T03:28:34.553Z,17.52
2018-05-10T03:29:34.559Z,17.54
2018-05-10T03:30:34.531Z,17.50
2018-05-10T03:31:34.517Z,17.42
2018-05-10T03:32:34.500Z,17.41
2018-05-10T03:33:34.486Z,17.47
2018-05-10T03:34:34.471Z,17.49
2018-05-10T03:35:34.458Z,17.52
2018-05-10T03:36:34.445Z,17.46
2018-05-10T03:37:34.435Z,17.50
2018-05-10T03:38:34.419Z,17.53
2018-05-10T03:39:34.404Z,17.50
2018-05-10T03:40:34.435Z,17.47
2018-05-10T03:41:34.376Z,17.46
2018-05-10T03:42:34.364Z,17.53
2018-05-10T03:43:34.349Z,17.42
2018-05-10T03:44:34.336Z,17.47
2018-05-10T03:45:34.324Z,17.46
2018-05-10T03:46:34.312Z,17.42
2018-05-10T03:47:34.305Z,17.42
2018-05-10T03:48:34.285Z,17.42
2018-05-10T03:49:34.266Z,17.35
2018-05-10T03:50:34.253Z,17.39
2018-05-10T03:51:34.238Z,17.37
2018-05-10T03:52:34.227Z,17.32
2018-05-10T03:53:34.212Z,17.32
2018-05-10T03:54:34.199Z,17.39
2018-05-10T03:55:34.183Z,17.35
2018-05-10T03:56:34.179Z,17.24
2018-05-10T03:57:34.157Z,17.30
2018-05-10T03:58:34.152Z,17.37
2018-05-10T03:59:34.130Z,17.37
2018-05-10T04:00:34.114Z,17.37
2018-05-10T04:01:34.104Z,17.27
2018-05-10T04:02:34.089Z,17.24
2018-05-10T04:03:34.077Z,17.34
2018-05-10T04:04:34.060Z,17.30
2018-05-10T04:05:34.046Z,17.30
2018-05-10T04:06:34.034Z,17.34
2018-05-10T04:07:34.028Z,17.35
2018-05-10T04:08:34.006Z,17.37
2018-05-10T04:09:33.990Z,17.35
2018-05-10T04:10:33.979Z,17.30
2018-05-10T04:11:33.970Z,17.31
2018-05-10T04:12:33.949Z,17.32
2018-05-10T04:13:33.937Z,17.27
2018-05-10T04:14:33.921Z,17.22
2018-05-10T04:15:33.927Z,17.20
2018-05-10T04:16:33.895Z,17.22
2018-05-10T04:17:33.879Z,17.30
2018-05-10T04:18:33.868Z,17.31
2018-05-10T04:19:33.861Z,17.32
2018-05-10T04:20:33.840Z,17.34
2018-05-10T04:21:33.831Z,17.41
2018-05-10T04:22:33.813Z,17.39
2018-05-10T04:23:33.797Z,17.37
2018-05-10T04:24:33.797Z,17.41
2018-05-10T04:25:33.770Z,17.39
2018-05-10T04:26:33.759Z,17.31
2018-05-10T04:27:33.746Z,17.35
2018-05-10T04:28:33.732Z,17.34
2018-05-10T04:29:33.717Z,17.34
2018-05-10T04:30:33.703Z,17.37
2018-05-10T04:31:33.690Z,17.31
2018-05-10T04:32:33.679Z,17.39
2018-05-10T04:33:33.662Z,17.41
2018-05-10T04:34:33.659Z,17.41
2018-05-10T04:35:33.636Z,17.42
2018-05-10T04:36:33.625Z,17.53
2018-05-10T04:37:33.616Z,17.50
2018-05-10T04:38:33.593Z,17.42
2018-05-10T04:39:33.582Z,17.46
2018-05-10T04:40:33.570Z,17.52
2018-05-10T04:41:33.554Z,17.49
2018-05-10T04:42:33.543Z,17.53
2018-05-10T04:43:33.530Z,17.53
2018-05-10T04:44:33.517Z,17.57
2018-05-10T04:45:33.500Z,17.52
2018-05-10T04:46:33.493Z,17.49
2018-05-10T04:47:33.476Z,17.42
2018-05-10T04:48:33.541Z,17.31
2018-05-10T04:49:33.450Z,17.30
2018-05-10T04:50:33.437Z,17.30
2018-05-10T04:51:33.427Z,17.49
2018-05-10T04:52:33.411Z,17.37
2018-05-10T04:53:33.402Z,17.42
2018-05-10T04:54:33.393Z,17.39
2018-05-10T04:55:33.380Z,17.39
2018-05-10T04:56:33.364Z,17.38
2018-05-10T04:57:33.346Z,17.32
2018-05-10T04:58:33.333Z,17.24
2018-05-10T04:59:33.320Z,17.27
2018-05-10T05:00:33.309Z,17.35
2018-05-10T05:01:33.294Z,17.24
2018-05-10T05:02:33.288Z,17.28
2018-05-10T05:03:33.276Z,17.30
2018-05-10T05:04:33.255Z,17.16
2018-05-10T05:05:33.240Z,17.31
2018-05-10T05:06:33.228Z,17.30
2018-05-10T05:07:33.223Z,17.31
2018-05-10T05:08:33.206Z,17.31
2018-05-10T05:09:33.191Z,17.22
2018-05-10T05:10:33.182Z,17.16
2018-05-10T05:11:33.163Z,17.19
2018-05-10T05:12:33.158Z,17.16
2018-05-10T05:13:33.136Z,17.20
2018-05-10T05:14:33.122Z,17.20
2018-05-10T05:15:33.109Z,17.30
2018-05-10T05:16:33.097Z,17.30
2018-05-10T05:17:33.083Z,17.24
2018-05-10T05:18:33.071Z,17.39
2018-05-10T05:19:33.058Z,17.46
2018-05-10T05:20:33.046Z,17.39
2018-05-10T05:21:33.109Z,17.37
2018-05-10T05:22:33.022Z,17.31
2018-05-10T05:23:33.063Z,17.32
2018-05-10T05:24:32.993Z,17.19
2018-05-10T05:25:32.981Z,17.27
2018-05-10T05:26:32.965Z,17.19
2018-05-10T05:27:32.954Z,17.17
2018-05-10T05:28:32.943Z,17.14
2018-05-10T05:29:32.927Z,17.13
2018-05-10T05:30:32.915Z,17.22
2018-05-10T05:31:32.900Z,17.09
2018-05-10T05:32:32.889Z,17.12
2018-05-10T05:33:32.876Z,17.10
2018-05-10T05:34:32.862Z,17.02
2018-05-10T05:35:32.896Z,16.95
2018-05-10T05:36:32.874Z,16.92
2018-05-10T05:37:32.825Z,16.83
2018-05-10T05:38:32.815Z,16.82
2018-05-10T05:39:32.797Z,16.89
2018-05-10T05:40:32.784Z,16.80
2018-05-10T05:41:32.772Z,16.74
2018-05-10T05:42:32.760Z,16.77
2018-05-10T05:43:32.851Z,16.69
2018-05-10T05:44:32.733Z,16.74
2018-05-10T05:45:32.724Z,16.74
2018-05-10T05:46:32.760Z,16.77
2018-05-10T05:47:32.691Z,16.76
2018-05-10T05:48:32.678Z,16.77
2018-05-10T05:49:32.713Z,16.86
2018-05-10T05:50:32.660Z,17.07
2018-05-10T05:51:32.638Z,17.17
2018-05-10T05:52:32.625Z,17.17
2018-05-10T05:53:32.610Z,17.14
2018-05-10T05:54:32.607Z,17.14
2018-05-10T05:55:32.585Z,17.19
2018-05-10T05:56:32.571Z,17.19
2018-05-10T05:57:32.557Z,17.35
2018-05-10T05:58:32.544Z,17.27
2018-05-10T05:59:32.532Z,17.23
2018-05-10T06:00:32.517Z,17.20
2018-05-10T06:01:32.505Z,17.14
2018-05-10T06:02:32.493Z,17.07
2018-05-10T06:03:32.479Z,17.09
2018-05-10T06:04:32.466Z,17.05
2018-05-10T06:05:32.452Z,17.05
2018-05-10T06:06:32.445Z,17.09
2018-05-10T06:07:32.431Z,16.98
2018-05-10T06:08:32.431Z,16.98
2018-05-10T06:09:32.400Z,16.80
2018-05-10T06:10:32.383Z,16.97
2018-05-10T06:11:32.371Z,16.92
2018-05-10T06:12:32.357Z,17.05
2018-05-10T06:13:32.347Z,16.99
2018-05-10T06:14:32.332Z,17.07
2018-05-10T06:15:32.378Z,17.14
2018-05-10T06:16:32.304Z,17.16
2018-05-10T06:17:32.292Z,17.10
2018-05-10T06:18:32.281Z,17.04
2018-05-10T06:19:32.265Z,17.14
2018-05-10T06:20:32.249Z,17.01
2018-05-10T06:21:32.238Z,16.97
2018-05-10T06:22:32.224Z,17.13
2018-05-10T06:23:32.219Z,17.02
2018-05-10T06:24:32.197Z,16.99
2018-05-10T06:25:32.185Z,17.04
2018-05-10T06:26:32.170Z,16.94
2018-05-10T06:27:32.159Z,16.98
2018-05-10T06:28:32.145Z,16.86
2018-05-10T06:29:32.130Z,16.87
2018-05-10T06:30:32.119Z,16.91
2018-05-10T06:31:32.111Z,16.94
2018-05-10T06:32:32.102Z,17.01
2018-05-10T06:33:32.086Z,17.02
2018-05-10T06:34:32.073Z,17.12
2018-05-10T06:35:32.079Z,17.23
2018-05-10T06:36:32.040Z,17.28
2018-05-10T06:37:32.031Z,17.34
2018-05-10T06:38:32.023Z,17.44
2018-05-10T06:39:32.030Z,17.59
2018-05-10T06:40:31.992Z,17.72
2018-05-10T06:41:32.062Z,17.95
2018-05-10T06:42:31.964Z,18.18
2018-05-10T06:43:31.962Z,18.41
2018-05-10T06:44:31.952Z,18.73
2018-05-10T06:45:31.935Z,18.82
2018-05-10T06:46:31.923Z,19.00
2018-05-10T06:47:31.914Z,19.20
2018-05-10T06:48:31.896Z,18.97
2018-05-10T06:49:31.886Z,18.83
2018-05-10T06:50:31.869Z,18.86
2018-05-10T06:51:31.857Z,18.86
2018-05-10T06:52:31.850Z,18.96
2018-05-10T06:53:31.835Z,19.01
2018-05-10T06:54:31.879Z,19.32
2018-05-10T06:55:31.812Z,19.52
2018-05-10T06:56:31.803Z,19.55
2018-05-10T06:57:31.791Z,19.67
2018-05-10T06:58:31.786Z,19.64
2018-05-10T06:59:32.380Z,19.49
2018-05-10T07:00:31.761Z,19.30
2018-05-10T07:01:31.752Z,19.16
2018-05-10T07:02:31.743Z,19.01
2018-05-10T07:03:31.734Z,18.86
2018-05-10T07:04:31.728Z,18.83
2018-05-10T07:05:31.745Z,18.68
2018-05-10T07:06:31.710Z,18.73
2018-05-10T07:07:31.696Z,18.58
2018-05-10T07:08:31.688Z,18.70
2018-05-10T07:09:31.837Z,18.64
2018-05-10T07:10:31.667Z,18.51
2018-05-10T07:11:31.665Z,18.43
2018-05-10T07:12:31.649Z,18.48
2018-05-10T07:13:31.638Z,18.46
2018-05-10T07:14:31.629Z,18.49
2018-05-10T07:15:31.621Z,18.60
2018-05-10T07:16:31.619Z,18.64
2018-05-10T07:17:31.600Z,18.66
2018-05-10T07:18:31.591Z,18.73
2018-05-10T07:19:31.582Z,18.76
2018-05-10T07:20:31.581Z,18.68
2018-05-10T07:21:31.561Z,18.52
2018-05-10T07:22:31.552Z,18.46
2018-05-10T07:23:31.558Z,18.42
2018-05-10T07:24:31.540Z,18.48
2018-05-10T07:25:31.524Z,18.58
2018-05-10T07:26:31.520Z,18.76
2018-05-10T07:27:31.506Z,18.82
2018-05-10T07:28:31.495Z,18.66
2018-05-10T07:29:31.484Z,18.45
2018-05-10T07:30:31.483Z,18.55
2018-05-10T07:31:31.465Z,18.57
2018-05-10T07:32:31.464Z,18.61
2018-05-10T07:33:31.449Z,18.60
2018-05-10T07:34:31.442Z,18.68
2018-05-10T07:35:31.427Z,18.85
2018-05-10T07:36:31.418Z,18.86
2018-05-10T07:37:31.416Z,18.82
2018-05-10T07:38:31.392Z,18.67
2018-05-10T07:39:31.383Z,18.79
2018-05-10T07:40:31.402Z,18.81
2018-05-10T07:41:31.367Z,18.83
2018-05-10T07:42:31.354Z,18.83
2018-05-10T07:43:31.348Z,18.73
2018-05-10T07:44:31.331Z,18.82
2018-05-10T07:45:31.322Z,18.92
2018-05-10T07:46:31.328Z,19.00
2018-05-10T07:47:31.301Z,19.27
2018-05-10T07:48:31.296Z,19.30
2018-05-10T07:49:31.431Z,19.48
2018-05-10T07:50:31.280Z,19.47
2018-05-10T07:51:31.260Z,19.52
2018-05-10T07:52:31.258Z,19.57
2018-05-10T07:53:31.240Z,19.48
2018-05-10T07:54:31.233Z,19.20
2018-05-10T07:55:31.220Z,19.20
2018-05-10T07:56:31.227Z,19.17
2018-05-10T07:57:31.200Z,19.32
2018-05-10T07:58:31.191Z,19.52
2018-05-10T07:59:31.180Z,19.66
2018-05-10T08:00:31.172Z,19.82
2018-05-10T08:01:31.160Z,20.08
2018-05-10T08:02:31.153Z,20.10
2018-05-10T08:03:31.147Z,20.29
2018-05-10T08:04:31.133Z,20.30
2018-05-10T08:05:31.174Z,20.32
2018-05-10T08:06:31.113Z,20.32
2018-05-10T08:07:31.110Z,20.39
2018-05-10T08:08:31.096Z,20.46
2018-05-10T08:09:31.090Z,20.46
2018-05-10T08:10:31.076Z,20.39
2018-05-10T08:11:31.085Z,20.48
2018-05-10T08:12:31.062Z,20.52
2018-05-10T08:13:31.081Z,20.42
2018-05-10T08:14:31.041Z,20.49
2018-05-10T08:15:31.034Z,20.37
2018-05-10T08:16:31.026Z,20.42
2018-05-10T08:17:31.016Z,20.56
2018-05-10T08:18:31.007Z,20.32
2018-05-10T08:19:30.998Z,20.12
2018-05-10T08:20:30.991Z,20.02
2018-05-10T08:21:30.988Z,20.03
2018-05-10T08:22:30.974Z,20.07
2018-05-10T08:23:30.963Z,19.89
2018-05-10T08:24:30.955Z,19.71
2018-05-10T08:25:30.954Z,19.63
2018-05-10T08:26:30.937Z,19.64
2018-05-10T08:27:30.930Z,19.70
2018-05-10T08:28:30.927Z,19.81
2018-05-10T08:29:30.913Z,19.97
2018-05-10T08:30:30.910Z,20.17
2018-05-10T08:31:30.893Z,19.90
2018-05-10T08:32:30.984Z,19.94
2018-05-10T08:33:30.873Z,19.99
2018-05-10T08:34:30.866Z,20.19
2018-05-10T08:35:30.856Z,20.30
2018-05-10T08:36:30.969Z,19.96
2018-05-10T08:37:30.838Z,19.94
2018-05-10T08:38:30.833Z,19.89
2018-05-10T08:39:30.824Z,19.78
2018-05-10T08:40:30.812Z,19.77
2018-05-10T08:41:30.803Z,19.92
2018-05-10T08:42:30.793Z,19.99
2018-05-10T08:43:30.785Z,20.36
2018-05-10T08:44:30.776Z,20.48
2018-05-10T08:45:30.768Z,20.68
2018-05-10T08:46:30.758Z,20.63
2018-05-10T08:47:30.756Z,20.59
2018-05-10T08:48:30.741Z,20.68
2018-05-10T08:49:30.739Z,20.53
2018-05-10T08:50:30.723Z,20.55
2018-05-10T08:51:34.202Z,20.68
2018-05-10T08:52:30.706Z,20.75
2018-05-10T08:53:30.700Z,20.77
2018-05-10T08:54:30.690Z,20.88
2018-05-10T08:55:30.698Z,20.83
2018-05-10T08:56:30.675Z,20.67
2018-05-10T08:57:30.671Z,20.46
2018-05-10T08:58:30.656Z,20.42
2018-05-10T08:59:30.657Z,20.50
2018-05-10T09:00:30.649Z,20.37
2018-05-10T09:01:30.630Z,20.64
2018-05-10T09:02:30.624Z,20.83
2018-05-10T09:03:30.626Z,21.00
2018-05-10T09:04:30.609Z,20.95
2018-05-10T09:05:30.598Z,21.00
2018-05-10T09:06:30.592Z,20.70
2018-05-10T09:07:30.691Z,20.75
2018-05-10T09:08:30.576Z,20.86
2018-05-10T09:09:30.566Z,21.08
2018-05-10T09:10:30.567Z,21.07
2018-05-10T09:11:30.552Z,21.13
2018-05-10T09:12:31.966Z,21.25
2018-05-10T09:13:30.539Z,21.30
2018-05-10T09:15:14.309Z,21.26
2018-05-10T09:16:14.306Z,21.05
2018-05-10T09:17:14.291Z,21.00
2018-05-10T09:18:14.284Z,21.01
2018-05-10T09:19:14.279Z,20.96
2018-05-10T09:20:14.276Z,21.04
2018-05-10T09:21:14.281Z,21.04
2018-05-10T09:22:14.260Z,21.13
2018-05-10T09:23:14.262Z,21.08
2018-05-10T09:24:14.239Z,21.25
2018-05-10T09:25:14.231Z,21.45
2018-05-10T09:26:14.237Z,21.48
2018-05-10T09:27:14.224Z,21.50
2018-05-10T09:28:14.210Z,21.60
2018-05-10T09:29:14.203Z,21.62
2018-05-10T09:30:14.196Z,21.58
2018-05-10T09:31:14.194Z,21.59
2018-05-10T09:32:14.181Z,21.78
2018-05-10T09:33:14.174Z,21.99
2018-05-10T09:34:14.180Z,22.41
2018-05-10T09:35:14.162Z,21.85
2018-05-10T09:36:14.155Z,21.26
2018-05-10T09:37:14.149Z,20.96
2018-05-10T09:38:14.141Z,20.78
2018-05-10T09:39:14.221Z,20.59
2018-05-10T09:40:14.147Z,20.73
2018-05-10T09:41:14.120Z,20.46
2018-05-10T09:42:14.129Z,20.49
2018-05-10T09:43:14.112Z,20.40
2018-05-10T09:44:14.103Z,20.39
2018-05-10T09:45:14.095Z,20.37
2018-05-10T09:46:14.225Z,20.32
2018-05-10T09:47:14.084Z,20.22
2018-05-10T09:48:14.084Z,19.99
2018-05-10T09:49:14.062Z,19.92
2018-05-10T09:50:14.066Z,19.81
2018-05-10T09:51:14.048Z,19.77
2018-05-10T09:52:14.040Z,19.90
2018-05-10T09:53:14.034Z,20.07
2018-05-10T09:54:14.022Z,20.03
2018-05-10T09:55:14.013Z,20.04
2018-05-10T09:56:14.009Z,20.08
2018-05-10T09:57:14.011Z,20.03
2018-05-10T09:58:13.989Z,19.72
2018-05-10T10:00:18.293Z,19.44
2018-05-10T10:01:18.283Z,19.38
2018-05-10T10:02:18.281Z,19.23
2018-05-10T10:03:18.264Z,19.16
2018-05-10T10:04:18.254Z,19.20
2018-05-10T10:05:18.246Z,19.19
2018-05-10T10:06:18.326Z,19.17
2018-05-10T10:07:18.225Z,19.20
2018-05-10T10:08:18.218Z,19.15
2018-05-10T10:09:18.211Z,19.05
2018-05-10T10:10:18.209Z,18.81
2018-05-10T10:11:18.188Z,18.79
2018-05-10T10:12:18.282Z,18.76
2018-05-10T10:13:51.378Z,18.71
2018-05-10T10:14:18.161Z,18.73
2018-05-10T10:15:18.146Z,18.76
2018-05-10T10:16:18.137Z,18.71
2018-05-10T10:17:18.136Z,18.76
2018-05-10T10:18:18.116Z,18.66
2018-05-10T10:19:18.120Z,18.60
2018-05-10T10:20:51.311Z,18.70
2018-05-10T10:21:18.086Z,18.78
2018-05-10T10:22:18.082Z,18.86
2018-05-10T10:23:18.063Z,19.07
2018-05-10T10:24:18.057Z,19.15
2018-05-10T10:25:18.093Z,19.16
2018-05-10T10:26:18.031Z,19.15
2018-05-10T10:27:18.045Z,19.00
2018-05-10T10:28:18.025Z,18.97
2018-05-10T10:29:18.021Z,19.01
2018-05-10T10:30:17.995Z,18.94
2018-05-10T10:31:17.980Z,18.85
2018-05-10T10:32:18.055Z,18.53
2018-05-10T10:33:17.965Z,18.49
2018-05-10T10:34:17.947Z,18.42
2018-05-10T10:35:17.948Z,18.42
2018-05-10T10:36:17.925Z,18.36
2018-05-10T10:37:17.922Z,18.34
2018-05-10T10:38:17.931Z,18.24
2018-05-10T10:39:17.894Z,18.15
2018-05-10T10:40:17.890Z,18.11
2018-05-10T10:41:17.889Z,18.13
2018-05-10T10:42:17.861Z,18.12
2018-05-10T10:43:17.852Z,18.12
2018-05-10T10:44:17.844Z,17.98
2018-05-10T10:45:17.835Z,17.98
2018-05-10T10:46:17.820Z,17.91
2018-05-10T10:47:17.812Z,17.91
2018-05-10T10:48:17.813Z,17.95
2018-05-10T10:49:17.787Z,17.78
2018-05-10T10:50:17.785Z,17.56
2018-05-10T10:51:17.763Z,17.57
2018-05-10T10:52:17.752Z,17.54
2018-05-10T10:53:17.742Z,17.54
2018-05-10T10:54:17.731Z,17.54
2018-05-10T10:55:17.723Z,17.54
2018-05-10T10:56:17.710Z,17.44
2018-05-10T10:57:17.705Z,17.44
2018-05-10T10:58:17.695Z,17.42
2018-05-10T10:59:17.702Z,17.42
2018-05-10T11:00:17.669Z,17.34
2018-05-10T11:01:17.679Z,17.35
2018-05-10T11:02:17.641Z,17.37
2018-05-10T11:03:17.629Z,17.39
2018-05-10T11:04:17.617Z,17.46
2018-05-10T11:05:17.615Z,17.49
2018-05-10T11:06:17.592Z,17.49
2018-05-10T11:07:17.584Z,17.50
2018-05-10T11:08:17.679Z,17.42
2018-05-10T11:09:17.662Z,17.46
2018-05-10T11:10:17.552Z,17.47
2018-05-10T11:11:17.543Z,17.41
2018-05-10T11:12:17.519Z,17.39
2018-05-10T11:13:17.508Z,17.44
2018-05-10T11:14:17.511Z,17.47
2018-05-10T11:15:17.495Z,17.42
2018-05-10T11:16:17.478Z,17.39
2018-05-10T11:17:17.459Z,17.41
2018-05-10T11:18:17.446Z,17.34
2018-05-10T11:19:17.438Z,17.32
2018-05-10T11:20:17.428Z,17.28
2018-05-10T11:21:17.420Z,17.30
2018-05-10T11:22:17.409Z,17.31
2018-05-10T11:23:17.384Z,17.23
2018-05-10T11:24:17.377Z,17.17
2018-05-10T11:25:17.365Z,17.07
2018-05-10T11:26:17.350Z,17.05
2018-05-10T11:27:17.388Z,17.12
2018-05-10T11:28:17.335Z,16.98
2018-05-10T11:29:17.312Z,16.83
2018-05-10T11:30:17.299Z,16.83
2018-05-10T11:31:17.293Z,16.82
2018-05-10T11:32:17.277Z,16.76
2018-05-10T11:33:17.292Z,16.83
2018-05-10T11:34:17.253Z,16.73
2018-05-10T11:35:17.235Z,16.77
2018-05-10T11:36:17.289Z,16.76
2018-05-10T11:37:17.210Z,16.79
2018-05-10T11:38:17.211Z,16.82
2018-05-10T11:39:17.185Z,16.69
2018-05-10T11:40:17.187Z,16.66
2018-05-10T11:41:17.259Z,16.76
2018-05-10T11:42:17.154Z,16.69
2018-05-10T11:43:17.137Z,16.66
2018-05-10T11:44:17.123Z,16.55
2018-05-10T11:45:17.120Z,16.59
2018-05-10T11:46:17.095Z,16.61
2018-05-10T11:47:17.087Z,16.61
2018-05-10T11:48:17.072Z,16.50
2018-05-10T11:49:17.065Z,16.47
2018-05-10T11:50:17.046Z,16.51
2018-05-10T11:51:17.035Z,16.57
2018-05-10T11:52:17.019Z,16.64
2018-05-10T11:53:17.011Z,16.76
2018-05-10T11:54:16.996Z,16.65
2018-05-10T11:55:16.982Z,16.73
2018-05-10T11:56:16.972Z,16.65
2018-05-10T11:57:17.066Z,16.76
2018-05-10T11:58:16.942Z,16.92
2018-05-10T11:59:16.934Z,16.84
2018-05-10T12:00:16.915Z,16.98
2018-05-10T12:01:16.920Z,16.97
2018-05-10T12:02:16.891Z,16.89
2018-05-10T12:03:16.877Z,16.79
2018-05-10T12:04:16.871Z,16.89
2018-05-10T12:05:16.851Z,16.80
2018-05-10T12:06:16.841Z,16.82
2018-05-10T12:07:16.828Z,16.87
2018-05-10T12:08:16.815Z,16.82
2018-05-10T12:09:16.814Z,16.87
2018-05-10T12:10:16.789Z,16.74
2018-05-10T12:11:16.785Z,16.82
2018-05-10T12:12:16.766Z,16.76
2018-05-10T12:13:16.753Z,16.82
2018-05-10T12:14:16.739Z,16.82
2018-05-10T12:15:16.737Z,16.92
2018-05-10T12:16:16.714Z,16.94
2018-05-10T12:17:16.709Z,16.79
2018-05-10T12:18:16.692Z,16.83
2018-05-10T12:19:16.732Z,16.83
2018-05-10T12:20:16.714Z,16.86
2018-05-10T12:21:16.650Z,16.94
2018-05-10T12:22:16.645Z,16.86
2018-05-10T12:23:16.628Z,16.89
2018-05-10T12:24:16.613Z,16.99
2018-05-10T12:25:16.603Z,16.97
2018-05-10T12:26:16.587Z,16.97
2018-05-10T12:27:16.578Z,16.87
2018-05-10T12:28:16.562Z,16.83
2018-05-10T12:29:16.548Z,16.92
2018-05-10T12:30:16.535Z,16.82
2018-05-10T12:31:16.528Z,16.91
2018-05-10T12:32:16.511Z,16.72
2018-05-10T12:33:16.508Z,16.72
2018-05-10T12:34:16.490Z,16.59
2018-05-10T12:35:16.482Z,16.49
2018-05-10T12:36:16.471Z,16.47
2018-05-10T12:37:16.447Z,16.50
2018-05-10T12:38:16.448Z,16.50
2018-05-10T12:39:16.442Z,16.36
2018-05-10T12:40:16.409Z,16.39
2018-05-10T12:41:16.400Z,16.39
2018-05-10T12:42:16.397Z,16.40
2018-05-10T12:43:16.381Z,16.31
2018-05-10T12:44:16.426Z,16.36
2018-05-10T12:45:16.345Z,16.37
2018-05-10T12:46:16.330Z,16.37
2018-05-10T12:47:16.322Z,16.28
2018-05-10T12:48:16.317Z,16.29
2018-05-10T12:49:16.292Z,16.31
2018-05-10T12:50:16.287Z,16.29
2018-05-10T12:51:16.265Z,16.25
2018-05-10T12:52:16.260Z,16.18
2018-05-10T12:53:16.236Z,16.21
2018-05-10T12:54:16.226Z,16.31
2018-05-10T12:55:16.217Z,16.18
2018-05-10T12:56:16.290Z,16.09
2018-05-10T12:57:16.186Z,16.00